createdAt,value
2022-10-15T00:00:43.499Z,10.47
2022-10-15T00:03:10.452Z,8.47
2022-10-15T00:05:38.885Z,9.30
2022-10-15T00:08:06.796Z,10.44
2022-10-15T00:10:34.735Z,9.68
2022-10-15T00:15:30.459Z,9.24
2022-10-15T00:17:57.372Z,9.63
2022-10-15T00:20:24.194Z,10.04
2022-10-15T00:22:50.974Z,9.43
2022-10-15T00:25:18.179Z,8.71
2022-10-15T00:27:45.333Z,9.51
2022-10-15T00:30:12.711Z,9.63
2022-10-15T00:32:39.557Z,9.79
2022-10-15T00:35:07.220Z,9.10
2022-10-15T00:37:34.627Z,9.95
2022-10-15T00:42:28.615Z,10.70
2022-10-15T00:44:58.539Z,10.75
2022-10-15T00:47:40.794Z,10.16
2022-10-15T00:50:25.096Z,10.85
2022-10-15T00:53:00.116Z,10.85
2022-10-15T00:55:37.041Z,10.84
2022-10-15T00:58:13.989Z,9.54
2022-10-15T01:00:41.782Z,10.61
2022-10-15T01:03:08.795Z,9.91
2022-10-15T01:05:37.996Z,9.94
2022-10-15T01:08:05.379Z,9.41
2022-10-15T01:10:41.722Z,9.72
2022-10-15T01:13:20.653Z,10.66
2022-10-15T01:16:20.096Z,10.64
2022-10-15T01:18:57.997Z,10.48
2022-10-15T01:21:37.539Z,10.66
2022-10-15T01:24:43.273Z,10.35
2022-10-15T01:27:36.432Z,9.26
2022-10-15T01:30:50.531Z,10.59
2022-10-15T01:33:37.253Z,10.75
2022-10-15T01:36:27.471Z,10.63
2022-10-15T01:39:16.599Z,9.55
2022-10-15T01:41:47.800Z,10.44
2022-10-15T01:44:31.812Z,9.68
2022-10-15T01:47:14.681Z,9.69
2022-10-15T01:49:46.015Z,9.50
2022-10-15T01:52:23.463Z,8.14
2022-10-15T01:54:52.860Z,7.58
2022-10-15T01:57:21.952Z,9.96
2022-10-15T01:59:50.732Z,10.79
2022-10-15T02:02:17.920Z,10.30
2022-10-15T02:04:44.849Z,10.26
2022-10-15T02:07:32.836Z,8.65
2022-10-15T02:10:12.674Z,11.11
2022-10-15T02:12:49.138Z,11.06
2022-10-15T02:15:44.409Z,9.65
2022-10-15T02:18:23.619Z,9.64
2022-10-15T02:21:02.136Z,10.34
2022-10-15T02:23:44.089Z,10.45
2022-10-15T02:26:13.618Z,11.20
2022-10-15T02:28:45.647Z,9.32
2022-10-15T02:31:14.716Z,8.02
2022-10-15T02:33:43.113Z,8.52
2022-10-15T02:36:10.541Z,10.19
2022-10-15T02:38:40.739Z,8.21
2022-10-15T02:41:09.554Z,9.08
2022-10-15T02:43:37.830Z,8.63
2022-10-15T02:46:05.979Z,9.96
2022-10-15T02:48:33.134Z,8.95
2022-10-15T02:51:00.202Z,10.78
2022-10-15T02:53:27.057Z,10.35
2022-10-15T02:55:54.320Z,9.31
2022-10-15T02:58:21.216Z,9.20
2022-10-15T03:00:49.172Z,10.98
2022-10-15T03:03:16.284Z,11.04
2022-10-15T03:05:44.075Z,9.72
2022-10-15T03:08:10.856Z,10.50
2022-10-15T03:10:38.008Z,10.61
2022-10-15T03:13:06.576Z,10.89
2022-10-15T03:15:33.453Z,10.27
2022-10-15T03:18:00.856Z,11.04
2022-10-15T03:20:28.098Z,10.15
2022-10-15T03:22:55.017Z,10.97
2022-10-15T03:25:22.338Z,8.40
2022-10-15T03:27:49.500Z,10.08
2022-10-15T03:30:16.539Z,9.37
2022-10-15T03:35:10.606Z,9.06
2022-10-15T03:37:37.647Z,9.84
2022-10-15T03:40:11.950Z,9.03
2022-10-15T03:42:41.878Z,9.81
2022-10-15T03:45:09.299Z,9.78
2022-10-15T03:47:36.457Z,10.19
2022-10-15T03:50:05.982Z,8.82
2022-10-15T03:52:33.215Z,7.67
2022-10-15T03:55:00.159Z,11.04
2022-10-15T03:57:27.121Z,10.27
2022-10-15T03:59:54.123Z,9.61
2022-10-15T04:02:21.668Z,8.69
2022-10-15T04:04:51.571Z,10.99
2022-10-15T04:07:18.833Z,11.00
2022-10-15T04:09:45.818Z,11.08
2022-10-15T04:12:17.333Z,10.68
2022-10-15T04:14:44.476Z,10.93
2022-10-15T04:17:12.035Z,10.97
2022-10-15T04:19:39.051Z,10.93
2022-10-15T04:22:05.890Z,10.05
2022-10-15T04:24:32.735Z,9.76
2022-10-15T04:26:59.797Z,10.68
2022-10-15T04:29:26.778Z,10.47
2022-10-15T04:31:53.934Z,8.96
2022-10-15T04:34:21.101Z,8.50
2022-10-15T04:36:47.978Z,8.82
2022-10-15T04:39:16.172Z,9.45
2022-10-15T04:41:43.361Z,10.60
2022-10-15T04:44:10.363Z,10.96
2022-10-15T04:46:37.195Z,9.76
2022-10-15T04:49:04.348Z,10.89
2022-10-15T04:51:31.330Z,9.41
2022-10-15T04:53:58.079Z,10.94
2022-10-15T04:56:25.001Z,9.64
2022-10-15T04:58:51.993Z,9.74
2022-10-15T05:01:20.418Z,9.10
2022-10-15T05:03:48.920Z,10.34
2022-10-15T05:06:19.676Z,10.45
2022-10-15T05:08:47.494Z,10.51
2022-10-15T05:11:20.397Z,9.13
2022-10-15T05:13:47.695Z,7.59
2022-10-15T05:16:17.782Z,9.65
2022-10-15T05:18:46.519Z,9.99
2022-10-15T05:21:13.860Z,9.49
2022-10-15T05:23:41.315Z,9.35
2022-10-15T05:26:12.193Z,10.93
2022-10-15T05:28:39.237Z,10.26
2022-10-15T05:31:07.856Z,8.67
2022-10-15T05:33:35.232Z,10.16
2022-10-15T05:36:19.071Z,10.82
2022-10-15T05:38:47.937Z,11.20
2022-10-15T05:41:15.442Z,10.39
2022-10-15T05:43:43.074Z,11.16
2022-10-15T05:46:10.109Z,11.92
2022-10-15T05:48:37.353Z,9.65
2022-10-15T05:51:06.673Z,12.13
2022-10-15T05:53:34.274Z,11.62
2022-10-15T05:56:01.739Z,12.34
2022-10-15T05:58:32.042Z,12.43
2022-10-15T06:01:03.880Z,12.53
2022-10-15T06:03:30.930Z,12.52
2022-10-15T06:05:58.515Z,12.63
2022-10-15T06:08:30.477Z,12.70
2022-10-15T06:11:06.723Z,12.37
2022-10-15T06:13:42.734Z,12.89
2022-10-15T06:16:10.540Z,11.98
2022-10-15T06:18:37.959Z,12.99
2022-10-15T06:21:06.100Z,11.94
2022-10-15T06:23:32.971Z,13.10
2022-10-15T06:26:04.531Z,13.31
2022-10-15T06:28:32.275Z,13.32
2022-10-15T06:31:00.109Z,12.40
2022-10-15T06:33:27.793Z,12.63
2022-10-15T06:35:55.155Z,13.91
2022-10-15T06:38:22.021Z,13.61
2022-10-15T06:40:48.861Z,12.33
2022-10-15T06:43:15.916Z,11.73
2022-10-15T06:45:42.913Z,13.34
2022-10-15T06:48:09.800Z,13.34
2022-10-15T06:50:38.956Z,13.51
2022-10-15T06:53:06.481Z,14.04
2022-10-15T06:55:33.312Z,14.18
2022-10-15T06:58:00.795Z,13.44
2022-10-15T07:00:28.292Z,14.88
2022-10-15T07:02:55.239Z,14.14
2022-10-15T07:05:22.701Z,15.33
2022-10-15T07:07:53.795Z,14.72
2022-10-15T07:12:53.407Z,14.13
2022-10-15T07:15:20.419Z,14.49
2022-10-15T07:17:52.275Z,15.16
2022-10-15T07:20:23.447Z,15.12
2022-10-15T07:23:00.980Z,15.09
2022-10-15T07:25:28.443Z,14.82
2022-10-15T07:27:57.301Z,15.73
2022-10-15T07:30:25.901Z,13.84
2022-10-15T07:32:53.039Z,14.51
2022-10-15T07:35:19.872Z,14.82
2022-10-15T07:37:46.742Z,15.47
2022-10-15T07:40:13.757Z,15.62
2022-10-15T07:42:41.835Z,14.95
2022-10-15T07:45:09.273Z,15.40
2022-10-15T07:47:36.197Z,16.09
2022-10-15T07:50:03.171Z,14.72
2022-10-15T07:52:31.351Z,15.27
2022-10-15T07:54:58.437Z,14.20
2022-10-15T07:57:25.256Z,15.30
2022-10-15T07:59:52.235Z,16.59
2022-10-15T08:02:19.759Z,15.97
2022-10-15T08:04:49.529Z,16.69
2022-10-15T08:07:16.529Z,16.24
2022-10-15T08:12:11.458Z,16.23
2022-10-15T08:14:38.333Z,14.53
2022-10-15T08:17:06.035Z,17.63
2022-10-15T08:19:33.303Z,16.76
2022-10-15T08:22:00.116Z,17.96
2022-10-15T08:24:27.577Z,17.17
2022-10-15T08:26:54.291Z,17.21
2022-10-15T08:29:21.061Z,17.17
2022-10-15T08:31:48.152Z,17.43
2022-10-15T08:34:14.967Z,17.62
2022-10-15T08:36:41.877Z,18.47
2022-10-15T08:39:08.921Z,18.19
2022-10-15T08:41:48.139Z,18.86
2022-10-15T08:44:31.316Z,18.98
2022-10-15T08:47:28.981Z,19.11
2022-10-15T08:49:59.056Z,18.74
2022-10-15T08:52:34.815Z,19.54
2022-10-15T08:55:02.792Z,19.83
2022-10-15T08:57:32.277Z,20.18
2022-10-15T09:00:05.996Z,18.53
2022-10-15T09:03:11.290Z,19.57
2022-10-15T09:05:46.955Z,19.87
2022-10-15T09:08:33.512Z,19.22
2022-10-15T09:11:22.430Z,20.36
2022-10-15T09:13:49.359Z,20.38
2022-10-15T09:16:24.788Z,19.05
2022-10-15T09:18:53.650Z,20.40
2022-10-15T09:21:24.200Z,19.46
2022-10-15T09:23:52.314Z,18.36
2022-10-15T09:26:26.316Z,18.30
2022-10-15T09:29:14.093Z,18.47
2022-10-15T09:31:51.867Z,17.33
2022-10-15T09:34:29.988Z,16.85
2022-10-15T09:37:09.417Z,17.74
2022-10-15T09:40:04.045Z,17.41
2022-10-15T09:42:36.364Z,16.34
2022-10-15T09:45:07.204Z,17.40
2022-10-15T09:47:36.436Z,16.56
2022-10-15T09:50:09.643Z,16.66
2022-10-15T09:53:11.430Z,17.11
2022-10-15T09:56:06.329Z,16.83
2022-10-15T09:58:54.489Z,16.20
2022-10-15T10:01:23.913Z,18.50
2022-10-15T10:04:12.058Z,18.65
2022-10-15T10:06:51.852Z,20.61
2022-10-15T10:09:34.056Z,19.71
2022-10-15T10:12:04.091Z,19.77
2022-10-15T10:14:55.762Z,21.28
2022-10-15T11:15:05.673Z,23.21
2022-10-15T11:18:02.981Z,22.84
2022-10-15T11:21:07.171Z,21.50
2022-10-15T11:24:02.327Z,20.43
2022-10-15T11:27:19.875Z,20.72
2022-10-15T11:29:52.529Z,20.46
2022-10-15T11:32:54.388Z,19.83
2022-10-15T11:35:52.444Z,19.48
2022-10-15T11:38:27.865Z,19.13
2022-10-15T11:40:57.340Z,19.17
2022-10-15T11:43:45.099Z,18.28
2022-10-15T11:46:23.932Z,19.46
2022-10-15T11:49:12.471Z,20.70
2022-10-15T11:52:00.834Z,21.38
2022-10-15T11:54:37.174Z,21.63
2022-10-15T11:57:05.216Z,20.84
2022-10-15T11:59:46.646Z,22.11
2022-10-15T12:02:26.762Z,22.34
2022-10-15T12:05:01.393Z,21.81
2022-10-15T12:07:41.088Z,21.63
2022-10-15T12:10:46.842Z,21.32
2022-10-15T12:13:16.230Z,21.84
2022-10-15T12:15:51.028Z,21.84
2022-10-15T12:18:35.621Z,21.94
2022-10-15T12:21:02.691Z,21.86
2022-10-15T12:23:35.309Z,21.78
2022-10-15T12:26:02.284Z,20.61
2022-10-15T12:28:32.752Z,20.11
2022-10-15T12:31:05.176Z,20.23
2022-10-15T12:33:35.674Z,19.83
2022-10-15T12:36:25.523Z,20.40
2022-10-15T12:39:11.457Z,20.38
2022-10-15T12:41:50.348Z,21.44
2022-10-15T12:44:35.079Z,20.26
2022-10-15T12:47:01.918Z,21.99
2022-10-15T12:49:28.594Z,21.46
2022-10-15T12:51:56.913Z,19.90
2022-10-15T12:54:46.617Z,21.48
2022-10-15T12:57:31.877Z,21.84
2022-10-15T13:00:00.565Z,22.05
2022-10-15T13:05:23.272Z,21.19
2022-10-15T13:07:51.862Z,20.86
2022-10-15T13:10:23.344Z,21.91
2022-10-15T13:12:57.732Z,21.61
2022-10-15T13:15:28.508Z,21.45
2022-10-15T13:17:57.811Z,21.24
2022-10-15T13:20:24.538Z,21.41
2022-10-15T13:22:58.371Z,21.47
2022-10-15T13:25:33.832Z,21.10
2022-10-15T13:28:00.657Z,20.45
2022-10-15T13:30:27.514Z,21.53
2022-10-15T13:32:56.233Z,20.13
2022-10-15T13:35:31.365Z,20.42
2022-10-15T13:38:00.232Z,20.36
2022-10-15T13:40:30.257Z,21.13
2022-10-15T13:43:07.133Z,21.24
2022-10-15T13:45:34.543Z,20.68
2022-10-15T13:48:01.291Z,19.78
2022-10-15T13:50:37.719Z,20.51
2022-10-15T13:53:26.754Z,20.45
2022-10-15T13:55:57.018Z,19.33
2022-10-15T13:58:27.687Z,20.28
2022-10-15T14:01:03.694Z,20.19
2022-10-15T14:03:38.130Z,19.50
2022-10-15T14:06:25.540Z,20.13
2022-10-15T14:09:01.615Z,20.00
2022-10-15T14:11:30.187Z,19.83
2022-10-15T14:13:59.068Z,19.99
2022-10-15T14:16:41.242Z,19.73
2022-10-15T14:19:12.150Z,19.90
2022-10-15T14:21:45.225Z,18.70
2022-10-15T14:24:22.121Z,20.02
2022-10-15T14:26:50.050Z,19.94
2022-10-15T14:29:20.052Z,19.71
2022-10-15T14:31:48.959Z,18.83
2022-10-15T14:34:35.395Z,19.39
2022-10-15T14:37:41.531Z,19.41
2022-10-15T14:40:08.358Z,19.25
2022-10-15T14:42:39.610Z,18.38
2022-10-15T14:45:18.473Z,18.88
2022-10-15T14:47:48.787Z,18.09
2022-10-15T14:50:17.170Z,17.88
2022-10-15T14:52:46.727Z,17.86
2022-10-15T14:55:42.985Z,18.57
2022-10-15T14:58:17.140Z,17.79
2022-10-15T15:00:47.328Z,17.93
2022-10-15T15:03:29.601Z,18.17
2022-10-15T15:05:57.848Z,17.63
2022-10-15T15:08:26.045Z,17.34
2022-10-15T15:10:56.037Z,17.09
2022-10-15T15:13:25.755Z,16.63
2022-10-15T15:15:53.229Z,15.90
2022-10-15T15:18:20.727Z,15.47
2022-10-15T15:20:49.881Z,16.20
2022-10-15T15:23:23.497Z,15.03
2022-10-15T15:25:51.154Z,15.85
2022-10-15T15:28:21.007Z,16.09
2022-10-15T15:30:56.353Z,16.05
2022-10-15T15:33:23.795Z,15.23
2022-10-15T15:35:53.776Z,15.70
2022-10-15T15:38:25.154Z,15.76
2022-10-15T15:40:51.991Z,15.73
2022-10-15T15:43:19.225Z,15.62
2022-10-15T15:45:47.341Z,14.65
2022-10-15T15:48:14.275Z,14.36
2022-10-15T15:50:41.090Z,14.51
2022-10-15T15:53:09.087Z,14.16
2022-10-15T15:55:35.741Z,15.24
2022-10-15T15:58:02.596Z,14.05
2022-10-15T16:00:29.491Z,14.19
2022-10-15T16:02:57.960Z,14.91
2022-10-15T16:05:25.074Z,14.13
2022-10-15T16:07:51.945Z,13.64
2022-10-15T16:10:18.839Z,13.53
2022-10-15T16:12:45.551Z,13.47
2022-10-15T16:15:14.718Z,14.26
2022-10-15T16:17:43.113Z,14.24
2022-10-15T16:20:10.695Z,13.00
2022-10-15T16:22:37.474Z,13.24
2022-10-15T16:25:04.778Z,13.24
2022-10-15T16:27:31.748Z,13.12
2022-10-15T16:29:58.489Z,12.73
2022-10-15T16:32:25.591Z,12.93
2022-10-15T16:34:52.562Z,12.56
2022-10-15T16:37:19.321Z,12.00
2022-10-15T16:39:46.289Z,12.93
2022-10-15T16:42:13.280Z,13.84
2022-10-15T16:44:40.420Z,13.68
2022-10-15T16:47:07.218Z,12.93
2022-10-15T16:49:34.059Z,13.50
2022-10-15T16:52:00.791Z,13.82
2022-10-15T16:54:27.677Z,13.59
2022-10-15T16:56:54.518Z,12.60
2022-10-15T16:59:21.433Z,13.29
2022-10-15T17:01:48.465Z,13.34
2022-10-15T17:04:15.227Z,12.55
2022-10-15T17:06:41.888Z,13.31
2022-10-15T17:09:08.812Z,13.09
2022-10-15T17:11:38.588Z,13.20
2022-10-15T17:14:08.321Z,13.14
2022-10-15T17:16:40.509Z,13.28
2022-10-15T17:19:08.386Z,12.99
2022-10-15T17:21:35.845Z,12.41
2022-10-15T17:24:05.559Z,11.85
2022-10-15T17:26:35.411Z,12.88
2022-10-15T17:29:03.247Z,11.60
2022-10-15T17:31:30.463Z,12.33
2022-10-15T17:34:02.688Z,12.65
2022-10-15T17:36:32.140Z,12.74
2022-10-15T17:39:00.229Z,12.07
2022-10-15T17:41:30.717Z,11.55
2022-10-15T17:43:58.077Z,12.74
2022-10-15T17:46:27.402Z,11.79
2022-10-15T17:48:55.582Z,11.72
2022-10-15T17:51:28.440Z,12.96
2022-10-15T17:53:55.599Z,13.08
2022-10-15T17:56:25.362Z,12.02
2022-10-15T17:58:52.676Z,12.96
2022-10-15T18:01:39.446Z,11.80
2022-10-15T18:04:12.049Z,12.99
2022-10-15T18:06:38.950Z,11.54
2022-10-15T18:09:05.722Z,11.50
2022-10-15T18:11:34.956Z,12.61
2022-10-15T18:14:02.292Z,12.17
2022-10-15T18:16:29.184Z,12.61
2022-10-15T18:18:56.741Z,12.61
2022-10-15T18:21:25.159Z,12.48
2022-10-15T18:23:52.161Z,12.75
2022-10-15T18:26:21.318Z,12.54
2022-10-15T18:28:50.814Z,12.50
2022-10-15T18:31:18.127Z,12.09
2022-10-15T18:33:50.890Z,10.58
2022-10-15T18:36:28.999Z,11.91
2022-10-15T18:38:58.012Z,11.86
2022-10-15T18:41:30.268Z,12.10
2022-10-15T18:43:59.043Z,12.05
2022-10-15T18:46:26.569Z,11.03
2022-10-15T18:48:54.105Z,10.49
2022-10-15T18:51:21.831Z,11.65
2022-10-15T18:53:48.886Z,10.56
2022-10-15T18:56:15.677Z,10.81
2022-10-15T18:58:42.933Z,10.96
2022-10-15T19:01:29.047Z,10.73
2022-10-15T19:03:57.568Z,11.52
2022-10-15T19:06:27.835Z,11.41
2022-10-15T19:08:57.845Z,11.30
2022-10-15T19:11:25.335Z,11.14
2022-10-15T19:13:52.291Z,9.63
2022-10-15T19:16:19.757Z,9.96
2022-10-15T19:18:46.559Z,10.97
2022-10-15T19:21:13.422Z,9.77
2022-10-15T19:23:40.271Z,10.64
2022-10-15T19:26:08.773Z,10.93
2022-10-15T19:28:35.821Z,10.93
2022-10-15T19:31:05.202Z,11.07
2022-10-15T19:33:33.552Z,9.42
2022-10-15T19:36:00.911Z,10.96
2022-10-15T19:38:28.610Z,10.91
2022-10-15T19:40:55.455Z,11.00
2022-10-15T19:43:23.426Z,11.07
2022-10-15T19:45:50.429Z,10.10
2022-10-15T19:48:19.413Z,10.13
2022-10-15T19:50:47.276Z,10.62
2022-10-15T19:53:17.181Z,9.62
2022-10-15T19:55:54.093Z,10.39
2022-10-15T19:58:21.148Z,9.48
2022-10-15T20:00:56.678Z,10.22
2022-10-15T20:03:25.005Z,10.14
2022-10-15T20:05:52.159Z,8.92
2022-10-15T20:08:19.256Z,9.28
2022-10-15T20:10:48.497Z,10.45
2022-10-15T20:13:15.771Z,10.45
2022-10-15T20:15:44.132Z,10.21
2022-10-15T20:18:11.753Z,10.47
2022-10-15T20:20:40.803Z,9.97
2022-10-15T20:23:07.873Z,10.71
2022-10-15T20:25:38.981Z,10.49
2022-10-15T20:28:06.117Z,9.56
2022-10-15T20:30:32.980Z,10.31
2022-10-15T20:32:59.798Z,8.95
2022-10-15T20:35:26.580Z,9.13
2022-10-15T20:37:53.356Z,8.75
2022-10-15T20:40:20.475Z,9.11
2022-10-15T20:42:47.304Z,9.52
2022-10-15T20:45:14.029Z,9.67
2022-10-15T20:47:45.564Z,9.17
2022-10-15T20:50:22.820Z,10.57
2022-10-15T20:52:50.064Z,9.83
2022-10-15T20:55:17.528Z,9.48
2022-10-15T20:57:44.365Z,9.78
2022-10-15T21:00:11.960Z,10.62
2022-10-15T21:02:38.777Z,10.82
2022-10-15T21:05:06.074Z,9.92
2022-10-15T21:07:33.016Z,10.56
2022-10-15T21:09:59.813Z,10.47
2022-10-15T21:12:26.957Z,9.58
2022-10-15T21:14:54.346Z,8.70
2022-10-15T21:17:21.036Z,9.38
2022-10-15T21:19:50.394Z,8.30
2022-10-15T21:22:19.862Z,9.10
2022-10-15T21:24:46.709Z,10.00
2022-10-15T21:27:13.551Z,9.08
2022-10-15T21:29:40.974Z,9.14
2022-10-15T21:32:07.656Z,8.79
2022-10-15T21:34:34.466Z,9.90
2022-10-15T21:37:01.507Z,9.71
2022-10-15T21:39:28.290Z,8.54
2022-10-15T21:41:55.081Z,9.24
2022-10-15T21:44:21.889Z,7.81
2022-10-15T21:46:48.747Z,7.82
2022-10-15T21:49:15.561Z,8.00
2022-10-15T21:51:42.530Z,8.12
2022-10-15T21:54:09.282Z,8.13
2022-10-15T21:56:37.089Z,7.75
2022-10-15T21:59:04.749Z,6.89
2022-10-15T22:01:33.740Z,7.37
2022-10-15T22:04:03.151Z,8.04
2022-10-15T22:06:30.749Z,6.64
2022-10-15T22:08:58.002Z,8.07
2022-10-15T22:11:30.815Z,6.58
2022-10-15T22:13:59.915Z,7.49
2022-10-15T22:16:28.035Z,7.68
2022-10-15T22:18:56.551Z,6.24
2022-10-15T22:21:26.668Z,7.27
2022-10-15T22:23:56.408Z,7.36
2022-10-15T22:26:26.657Z,7.85
2022-10-15T22:28:55.413Z,6.75
2022-10-15T22:31:22.571Z,6.46
2022-10-15T22:33:49.868Z,5.65
2022-10-15T22:36:26.164Z,6.29
2022-10-15T22:41:23.008Z,7.06
2022-10-15T22:43:50.485Z,7.40
2022-10-15T22:46:17.421Z,6.58
2022-10-15T22:48:44.157Z,5.63
2022-10-15T22:51:12.815Z,7.07
2022-10-15T22:53:40.159Z,6.58
2022-10-15T22:56:11.146Z,6.43
2022-10-15T22:58:38.184Z,6.80
2022-10-15T23:01:20.670Z,6.89
2022-10-15T23:03:51.451Z,7.74
2022-10-15T23:06:19.612Z,7.85
2022-10-15T23:08:46.516Z,7.86
2022-10-15T23:11:22.315Z,6.02
2022-10-15T23:13:54.499Z,7.57
2022-10-15T23:16:24.056Z,6.99
2022-10-15T23:19:02.437Z,6.51
2022-10-15T23:21:33.819Z,5.94
2022-10-15T23:24:01.455Z,5.87
2022-10-15T23:28:58.175Z,6.00
2022-10-15T23:31:27.435Z,6.86
2022-10-15T23:33:55.205Z,5.98
2022-10-15T23:36:23.087Z,6.07
2022-10-15T23:38:52.271Z,6.99
2022-10-15T23:41:19.800Z,6.89
2022-10-15T23:43:47.125Z,6.39
2022-10-15T23:46:14.981Z,6.07
2022-10-15T23:48:42.321Z,5.95
2022-10-15T23:51:14.358Z,5.58
2022-10-15T23:53:41.742Z,6.65
2022-10-15T23:56:08.552Z,4.87
2022-10-15T23:58:35.619Z,5.52
